Wyniki dla Kupujemy OR auto OR dostawcze

Najlepsze / Wszystko
  1. VNMs gamertag is Nexus VNM he has "joined max back" in his motto and has the Auto youtube in his bio

  2. i got tha OG ps2 for 399 comes with nba live 2006 and grand theft auto san andreas

  3. wika mi opowiada jak widzi auto w rowie i jej tata dzwoni na pogotowie bo ktoś tam jest

  4. RJTY 251628Z AUTO 35010KT 7SM R18/5500FT RA FEW007 BKN014 OVC019 09/09 A3004 RMK AO2 CIG 013V017 BKN V OVC

  5. Podane dalej 60 razy

    Wracałam z kol, jakies auto cały czas jechalo za nami, zaczęłyśmy uciekać. Okazało sie, że tata kupił nowy samochód XD

  6. jakiś pan jak jechało auto zatrzymał je ręką tak jak luke jako dr fluke i się z weroniką śmiałyśmy

  7. mój brzuch wydaje dziwne dźwięki, to przypomina troche popsute auto